createdAt,value
2023-05-10T00:00:00.233Z,264
2023-05-10T00:02:06.580Z,266
2023-05-10T00:04:14.164Z,266
2023-05-10T00:06:21.016Z,262
2023-05-10T00:08:27.496Z,264
2023-05-10T00:10:34.345Z,264
2023-05-10T00:12:41.493Z,264
2023-05-10T00:14:48.671Z,265
2023-05-10T00:16:57.775Z,264
2023-05-10T00:19:04.881Z,262
2023-05-10T00:21:13.082Z,264
2023-05-10T00:23:19.786Z,264
2023-05-10T00:25:26.099Z,262
2023-05-10T00:27:33.126Z,265
2023-05-10T00:29:39.767Z,262
2023-05-10T00:31:48.110Z,261
2023-05-10T00:33:54.737Z,262
2023-05-10T00:36:01.827Z,265
2023-05-10T00:38:09.902Z,265
2023-05-10T00:40:17.203Z,261
2023-05-10T00:42:24.719Z,261
2023-05-10T00:44:30.894Z,262
2023-05-10T00:46:38.191Z,262
2023-05-10T00:48:45.350Z,262
2023-05-10T00:50:51.484Z,261
2023-05-10T00:52:59.217Z,262
2023-05-10T00:55:08.621Z,262
2023-05-10T00:57:15.671Z,261
2023-05-10T00:59:22.442Z,262
2023-05-10T01:01:29.269Z,264
2023-05-10T01:03:36.618Z,265
2023-05-10T01:05:43.570Z,266
2023-05-10T01:07:50.211Z,267
2023-05-10T01:09:56.997Z,266
2023-05-10T01:12:03.561Z,266
2023-05-10T01:14:11.469Z,264
2023-05-10T01:16:19.684Z,264
2023-05-10T01:18:26.362Z,265
2023-05-10T01:20:33.198Z,265
2023-05-10T01:22:39.726Z,264
2023-05-10T01:24:46.934Z,264
2023-05-10T01:26:55.116Z,264
2023-05-10T01:29:02.097Z,264
2023-05-10T01:31:09.083Z,264
2023-05-10T01:33:15.438Z,262
2023-05-10T01:35:21.713Z,262
2023-05-10T01:37:29.066Z,262
2023-05-10T01:39:35.879Z,262
2023-05-10T01:41:43.874Z,262
2023-05-10T01:43:50.662Z,262
2023-05-10T01:45:57.069Z,264
2023-05-10T01:48:04.021Z,266
2023-05-10T01:50:11.096Z,267
2023-05-10T01:52:17.484Z,267
2023-05-10T01:54:25.211Z,266
2023-05-10T01:56:31.474Z,266
2023-05-10T01:58:38.128Z,266
2023-05-10T02:00:45.209Z,266
2023-05-10T02:02:51.733Z,266
2023-05-10T02:05:00.914Z,266
2023-05-10T02:07:07.577Z,266
2023-05-10T02:09:14.014Z,266
2023-05-10T02:11:21.086Z,265
2023-05-10T02:13:27.950Z,265
2023-05-10T02:15:34.765Z,264
2023-05-10T02:17:43.363Z,265
2023-05-10T02:19:50.058Z,265
2023-05-10T02:21:57.062Z,265
2023-05-10T02:24:03.499Z,266
2023-05-10T02:26:10.640Z,266
2023-05-10T02:28:17.503Z,265
2023-05-10T02:30:23.839Z,266
2023-05-10T02:32:31.230Z,265
2023-05-10T02:34:38.078Z,265
2023-05-10T02:36:44.618Z,266
2023-05-10T02:38:53.046Z,266
2023-05-10T02:40:59.388Z,266
2023-05-10T02:43:06.290Z,266
2023-05-10T02:45:14.059Z,265
2023-05-10T02:47:20.437Z,265
2023-05-10T02:49:26.965Z,266
2023-05-10T02:51:35.641Z,265
2023-05-10T02:53:42.220Z,265
2023-05-10T02:55:49.678Z,266
2023-05-10T02:57:56.185Z,266
2023-05-10T03:00:02.783Z,266
2023-05-10T03:02:10.279Z,266
2023-05-10T03:04:16.930Z,266
2023-05-10T03:06:24.241Z,267
2023-05-10T03:08:31.036Z,266
2023-05-10T03:10:37.791Z,266
2023-05-10T03:12:44.588Z,266
2023-05-10T03:14:51.984Z,266
2023-05-10T03:16:58.353Z,267
2023-05-10T03:19:05.455Z,282
2023-05-10T03:21:11.907Z,283
2023-05-10T03:23:19.198Z,282
2023-05-10T03:25:26.382Z,284
2023-05-10T03:27:32.912Z,283
2023-05-10T03:29:40.817Z,283
2023-05-10T03:31:47.748Z,283
2023-05-10T03:33:55.158Z,283
2023-05-10T03:36:02.007Z,283
2023-05-10T03:38:08.362Z,283
2023-05-10T03:40:16.133Z,284
2023-05-10T03:42:24.008Z,284
2023-05-10T03:44:30.783Z,284
2023-05-10T03:49:00.009Z,284
2023-05-10T03:51:07.070Z,286
2023-05-10T03:53:14.005Z,286
2023-05-10T03:55:20.740Z,286
2023-05-10T03:57:27.918Z,286
2023-05-10T03:59:34.801Z,286
2023-05-10T04:01:41.960Z,286
2023-05-10T04:03:48.991Z,286
2023-05-10T04:05:56.099Z,284
2023-05-10T04:08:02.729Z,284
2023-05-10T04:10:10.031Z,284
2023-05-10T04:12:16.368Z,284
2023-05-10T04:14:22.705Z,284
2023-05-10T04:16:29.408Z,284
2023-05-10T04:18:36.489Z,284
2023-05-10T04:20:43.115Z,286
2023-05-10T04:22:50.170Z,284
2023-05-10T04:24:56.596Z,285
2023-05-10T04:27:04.039Z,286
2023-05-10T04:29:10.869Z,285
2023-05-10T04:31:17.210Z,285
2023-05-10T04:33:23.995Z,285
2023-05-10T04:35:31.031Z,284
2023-05-10T04:37:37.199Z,285
2023-05-10T04:39:45.786Z,284
2023-05-10T04:41:52.459Z,285
2023-05-10T04:43:58.990Z,284
2023-05-10T04:46:05.730Z,285
2023-05-10T04:48:12.269Z,285
2023-05-10T04:50:21.092Z,284
2023-05-10T04:52:27.660Z,284
2023-05-10T04:54:35.296Z,284
2023-05-10T04:56:42.153Z,284
2023-05-10T04:58:48.680Z,285
2023-05-10T05:00:55.851Z,284
2023-05-10T05:03:03.904Z,284
2023-05-10T05:05:10.442Z,284
2023-05-10T05:07:17.793Z,284
2023-05-10T05:09:25.295Z,284
2023-05-10T05:11:32.381Z,284
2023-05-10T05:13:39.540Z,284
2023-05-10T05:15:45.995Z,284
2023-05-10T05:17:54.285Z,284
2023-05-10T05:20:01.341Z,284
2023-05-10T05:22:08.082Z,284
2023-05-10T05:24:15.472Z,284
2023-05-10T05:26:22.100Z,284
2023-05-10T05:28:29.180Z,284
2023-05-10T05:30:37.477Z,284
2023-05-10T05:32:44.251Z,284
2023-05-10T05:34:51.968Z,283
2023-05-10T05:36:58.693Z,284
2023-05-10T05:39:06.204Z,284
2023-05-10T05:41:13.137Z,284
2023-05-10T05:43:20.723Z,284
2023-05-10T05:45:29.045Z,284
2023-05-10T05:47:36.008Z,284
2023-05-10T05:49:42.636Z,284
2023-05-10T05:51:49.330Z,284
2023-05-10T05:53:56.982Z,284
2023-05-10T05:56:03.779Z,284
2023-05-10T05:58:11.074Z,284
2023-05-10T06:00:18.453Z,284
2023-05-10T06:02:25.500Z,284
2023-05-10T06:04:33.641Z,284
2023-05-10T06:06:44.880Z,284
2023-05-10T06:08:52.859Z,284
2023-05-10T06:11:03.563Z,284
2023-05-10T06:13:11.325Z,284
2023-05-10T06:15:18.667Z,284
2023-05-10T06:17:25.480Z,284
2023-05-10T06:19:32.997Z,284
2023-05-10T06:21:39.997Z,284
2023-05-10T06:23:46.971Z,284
2023-05-10T06:25:53.735Z,285
2023-05-10T06:28:02.372Z,284
2023-05-10T06:48:16.251Z,284
2023-05-10T06:50:30.457Z,284
2023-05-10T06:52:44.031Z,284
2023-05-10T06:54:57.382Z,284
2023-05-10T06:57:34.407Z,284
2023-05-10T06:59:49.032Z,284
2023-05-10T07:02:01.453Z,284
2023-05-10T07:04:13.045Z,284
2023-05-10T07:06:38.045Z,284
2023-05-10T07:08:50.327Z,284
2023-05-10T07:11:01.422Z,284
2023-05-10T07:13:11.966Z,283
2023-05-10T07:15:33.074Z,284
2023-05-10T07:17:59.653Z,284
2023-05-10T07:20:15.100Z,285
2023-05-10T07:22:34.501Z,285
2023-05-10T07:24:49.926Z,284
2023-05-10T07:27:03.463Z,284
2023-05-10T07:29:17.703Z,284
2023-05-10T07:31:28.902Z,284
2023-05-10T07:33:40.264Z,284
2023-05-10T07:35:54.765Z,283
2023-05-10T07:38:11.946Z,283
2023-05-10T07:40:22.737Z,284
2023-05-10T07:42:37.476Z,284
2023-05-10T07:44:51.281Z,284
2023-05-10T07:47:03.355Z,284
2023-05-10T07:49:22.456Z,284
2023-05-10T07:51:43.230Z,283
2023-05-10T07:53:54.039Z,284
2023-05-10T07:56:06.576Z,284
2023-05-10T07:58:20.375Z,283
2023-05-10T08:00:35.943Z,283
2023-05-10T08:02:47.633Z,283
2023-05-10T08:05:01.618Z,284
2023-05-10T08:07:12.419Z,284
2023-05-10T08:09:23.519Z,284
2023-05-10T08:11:37.217Z,284
2023-05-10T08:13:50.254Z,283
2023-05-10T08:16:02.604Z,283
2023-05-10T08:18:16.451Z,284
2023-05-10T08:20:30.183Z,284
2023-05-10T08:22:41.237Z,284
2023-05-10T08:24:52.940Z,284
2023-05-10T08:27:09.238Z,284
2023-05-10T08:29:22.847Z,283
2023-05-10T08:31:34.597Z,284
2023-05-10T08:34:28.763Z,284
2023-05-10T08:36:47.081Z,284
2023-05-10T08:38:58.560Z,283
2023-05-10T08:41:08.972Z,284
2023-05-10T08:43:26.099Z,284
2023-05-10T08:45:40.340Z,284
2023-05-10T08:47:51.478Z,284
2023-05-10T08:50:03.699Z,284
2023-05-10T08:52:13.939Z,284
2023-05-10T08:54:25.700Z,284
2023-05-10T08:56:37.481Z,284
2023-05-10T08:58:50.761Z,284
2023-05-10T09:01:03.972Z,284
2023-05-10T09:03:20.026Z,284
2023-05-10T09:05:30.208Z,284
2023-05-10T09:07:42.000Z,283
2023-05-10T09:09:54.819Z,284
2023-05-10T09:12:07.344Z,283
2023-05-10T09:14:20.501Z,284
2023-05-10T09:16:32.930Z,284
2023-05-10T09:18:43.651Z,284
2023-05-10T09:21:00.472Z,284
2023-05-10T09:23:12.611Z,284
2023-05-10T09:25:27.571Z,284
2023-05-10T09:27:39.783Z,284
2023-05-10T09:29:51.972Z,284
2023-05-10T09:32:01.984Z,284
2023-05-10T09:34:14.402Z,284
2023-05-10T09:36:28.400Z,284
2023-05-10T09:41:51.648Z,283
2023-05-10T09:44:03.647Z,284
2023-05-10T09:46:14.540Z,284
2023-05-10T09:48:26.067Z,284
2023-05-10T09:50:41.278Z,284
2023-05-10T09:52:55.588Z,284
2023-05-10T09:55:06.508Z,284
2023-05-10T09:57:19.415Z,284
2023-05-10T09:59:31.792Z,284
2023-05-10T10:01:46.358Z,284
2023-05-10T10:03:59.731Z,284
2023-05-10T10:06:33.991Z,284
2023-05-10T10:08:49.375Z,284
2023-05-10T10:11:00.636Z,283
2023-05-10T10:13:11.571Z,285
2023-05-10T10:15:25.849Z,284
2023-05-10T10:17:37.041Z,285
2023-05-10T10:19:50.354Z,284
2023-05-10T10:22:02.452Z,284
2023-05-10T10:24:20.979Z,284
2023-05-10T10:26:32.432Z,286
2023-05-10T10:28:43.849Z,286
2023-05-10T10:30:54.219Z,286
2023-05-10T10:33:29.458Z,286
2023-05-10T10:35:40.282Z,288
2023-05-10T10:37:52.040Z,286
2023-05-10T10:40:03.236Z,286
2023-05-10T10:42:27.034Z,286
2023-05-10T10:44:37.137Z,286
2023-05-10T10:46:48.416Z,286
2023-05-10T10:49:01.260Z,286
2023-05-10T10:51:16.151Z,288
2023-05-10T10:53:28.260Z,288
2023-05-10T10:55:40.217Z,286
2023-05-10T10:57:52.992Z,286
2023-05-10T11:00:03.956Z,286
2023-05-10T11:02:14.712Z,286
2023-05-10T11:04:27.153Z,286
2023-05-10T11:06:41.435Z,286
2023-05-10T11:08:52.165Z,286
2023-05-10T11:11:05.707Z,288
2023-05-10T11:13:16.294Z,288
2023-05-10T11:15:27.408Z,286
2023-05-10T11:17:41.052Z,286
2023-05-10T11:19:55.797Z,288
2023-05-10T11:22:08.506Z,286
2023-05-10T11:24:21.351Z,286
2023-05-10T11:26:37.953Z,286
2023-05-10T11:28:50.237Z,288
2023-05-10T11:31:02.189Z,286
2023-05-10T11:33:14.470Z,288
2023-05-10T11:35:25.787Z,288
2023-05-10T11:37:37.896Z,288
2023-05-10T11:39:50.405Z,288
2023-05-10T11:42:03.324Z,288
2023-05-10T11:44:15.979Z,288
2023-05-10T11:46:32.593Z,288
2023-05-10T11:48:46.778Z,288
2023-05-10T11:50:58.058Z,286
2023-05-10T11:53:09.977Z,288
2023-05-10T11:55:27.937Z,286
2023-05-10T11:57:40.434Z,288
2023-05-10T11:59:51.774Z,288
2023-05-10T12:02:02.607Z,288
2023-05-10T12:04:15.558Z,288
2023-05-10T12:06:28.423Z,288
2023-05-10T12:08:40.152Z,288
2023-05-10T12:10:52.313Z,288
2023-05-10T12:13:03.237Z,288
2023-05-10T12:15:14.797Z,288
2023-05-10T12:17:28.355Z,288
2023-05-10T12:19:42.217Z,288
2023-05-10T12:21:55.212Z,288
2023-05-10T12:24:14.235Z,288
2023-05-10T12:26:27.674Z,288
2023-05-10T12:31:43.322Z,288
2023-05-10T12:33:55.630Z,288
2023-05-10T12:36:12.810Z,288
2023-05-10T12:38:23.492Z,288
2023-05-10T12:40:36.502Z,288
2023-05-10T12:42:48.489Z,288
2023-05-10T12:45:03.384Z,288
2023-05-10T12:47:16.855Z,288
2023-05-10T12:49:28.550Z,288
2023-05-10T12:51:39.433Z,288
2023-05-10T12:53:52.214Z,288
2023-05-10T12:56:05.375Z,288
2023-05-10T12:58:37.702Z,288
2023-05-10T13:00:47.946Z,288
2023-05-10T13:02:58.521Z,288
2023-05-10T13:05:12.252Z,288
2023-05-10T13:07:24.876Z,289
2023-05-10T13:09:37.853Z,288
2023-05-10T13:11:48.936Z,289
2023-05-10T13:14:01.378Z,288
2023-05-10T13:16:15.643Z,288
2023-05-10T13:18:33.173Z,288
2023-05-10T13:20:45.194Z,288
2023-05-10T13:22:58.733Z,288
2023-05-10T13:25:14.529Z,288
2023-05-10T13:27:28.452Z,288
2023-05-10T13:29:45.890Z,288
2023-05-10T13:31:59.654Z,288
2023-05-10T13:34:09.855Z,288
2023-05-10T13:36:21.467Z,288
2023-05-10T13:38:35.123Z,288
2023-05-10T13:40:46.709Z,288
2023-05-10T13:42:56.973Z,288
2023-05-10T13:45:09.457Z,288
2023-05-10T13:47:23.539Z,288
2023-05-10T13:49:34.887Z,288
2023-05-10T13:51:47.038Z,288
2023-05-10T13:53:58.202Z,288
2023-05-10T13:56:10.606Z,288
2023-05-10T13:58:23.059Z,288
2023-05-10T14:00:41.211Z,288
2023-05-10T14:02:54.271Z,288
2023-05-10T14:05:08.063Z,286
2023-05-10T14:07:20.331Z,284
2023-05-10T14:09:34.769Z,282
2023-05-10T14:11:49.701Z,283
2023-05-10T14:14:01.880Z,283
2023-05-10T14:16:14.093Z,283
2023-05-10T14:18:27.881Z,281
2023-05-10T14:20:39.766Z,281
2023-05-10T14:22:52.773Z,267
2023-05-10T14:25:08.958Z,262
2023-05-10T14:27:23.875Z,261
2023-05-10T14:29:38.513Z,244
2023-05-10T14:31:56.706Z,262
2023-05-10T14:34:08.172Z,266
2023-05-10T14:36:25.443Z,276
2023-05-10T14:38:39.334Z,256
2023-05-10T14:40:56.271Z,279
2023-05-10T14:43:08.699Z,277
2023-05-10T14:45:19.780Z,276
2023-05-10T14:47:34.246Z,276
2023-05-10T14:49:47.428Z,278
2023-05-10T14:51:59.455Z,278
2023-05-10T14:54:12.673Z,274
2023-05-10T14:56:23.975Z,278
2023-05-10T14:58:45.407Z,279
2023-05-10T15:00:57.857Z,252
2023-05-10T15:03:15.630Z,279
2023-05-10T15:05:38.767Z,279
2023-05-10T15:07:52.251Z,279
2023-05-10T15:10:15.075Z,279
2023-05-10T15:12:29.670Z,279
2023-05-10T15:14:47.604Z,268
2023-05-10T15:17:14.285Z,260
2023-05-10T15:19:25.252Z,265
2023-05-10T15:21:37.784Z,255
2023-05-10T15:23:50.309Z,268
2023-05-10T15:26:02.864Z,273
2023-05-10T15:28:21.052Z,283
2023-05-10T15:30:40.875Z,282
2023-05-10T15:32:55.995Z,282
2023-05-10T15:35:08.972Z,282
2023-05-10T15:37:20.990Z,282
2023-05-10T15:39:32.510Z,281
2023-05-10T15:41:45.970Z,280
2023-05-10T15:43:59.256Z,280
2023-05-10T15:46:11.729Z,280
2023-05-10T15:48:24.929Z,272
2023-05-10T15:50:40.494Z,283
2023-05-10T15:52:52.333Z,283
2023-05-10T15:55:07.994Z,283
2023-05-10T15:57:17.929Z,282
2023-05-10T15:59:28.637Z,273
2023-05-10T16:01:42.662Z,268
2023-05-10T16:03:55.176Z,267
2023-05-10T16:06:06.234Z,267
2023-05-10T16:08:19.136Z,278
2023-05-10T16:10:32.018Z,279
2023-05-10T16:12:51.335Z,279
2023-05-10T16:15:04.118Z,279
2023-05-10T16:17:17.363Z,280
2023-05-10T16:19:33.851Z,280
2023-05-10T16:21:46.720Z,278
2023-05-10T16:23:58.584Z,266
2023-05-10T16:26:13.187Z,270
2023-05-10T16:28:26.554Z,276
2023-05-10T16:30:38.456Z,276
2023-05-10T16:32:52.850Z,273
2023-05-10T16:35:04.806Z,276
2023-05-10T16:37:17.082Z,276
2023-05-10T16:39:28.072Z,279
2023-05-10T16:41:41.282Z,279
2023-05-10T16:43:53.159Z,267
2023-05-10T16:46:06.856Z,281
2023-05-10T16:48:19.980Z,279
2023-05-10T16:50:34.632Z,279
2023-05-10T16:52:48.371Z,280
2023-05-10T16:55:11.520Z,280
2023-05-10T16:57:25.915Z,278
2023-05-10T16:59:41.222Z,279
2023-05-10T17:01:56.796Z,278
2023-05-10T17:04:09.060Z,261
2023-05-10T17:06:20.807Z,272
2023-05-10T17:08:33.514Z,280
2023-05-10T17:10:46.679Z,277
2023-05-10T17:13:00.934Z,279
2023-05-10T17:15:14.800Z,277
2023-05-10T17:17:28.259Z,278
2023-05-10T17:19:39.170Z,279
2023-05-10T17:21:50.657Z,279
2023-05-10T17:24:05.289Z,280
2023-05-10T17:26:17.470Z,279
2023-05-10T17:28:28.343Z,269
2023-05-10T17:30:39.740Z,257
2023-05-10T17:32:54.423Z,266
2023-05-10T17:35:06.035Z,273
2023-05-10T17:37:20.783Z,266
2023-05-10T17:39:32.502Z,267
2023-05-10T17:41:44.895Z,266
2023-05-10T17:43:56.701Z,256
2023-05-10T17:46:08.545Z,267
2023-05-10T17:48:21.780Z,267
2023-05-10T17:50:34.413Z,257
2023-05-10T17:52:48.095Z,264
2023-05-10T17:55:01.643Z,262
2023-05-10T17:57:14.520Z,261
2023-05-10T17:59:27.276Z,266
2023-05-10T18:01:39.566Z,268
2023-05-10T18:03:51.002Z,269
2023-05-10T18:06:06.263Z,262
2023-05-10T18:08:19.491Z,272
2023-05-10T18:10:34.517Z,268
2023-05-10T18:12:49.714Z,261
2023-05-10T18:15:00.262Z,264
2023-05-10T18:17:12.349Z,265
2023-05-10T18:19:39.242Z,273
2023-05-10T18:21:56.209Z,268
2023-05-10T18:24:08.897Z,267
2023-05-10T18:26:23.453Z,266
2023-05-10T18:28:36.858Z,264
2023-05-10T18:30:49.785Z,262
2023-05-10T18:33:01.413Z,274
2023-05-10T18:35:12.571Z,273
2023-05-10T18:37:24.451Z,273
2023-05-10T18:39:41.380Z,273
2023-05-10T18:41:52.754Z,272
2023-05-10T18:44:04.720Z,272
2023-05-10T18:46:17.200Z,271
2023-05-10T18:48:30.209Z,272
2023-05-10T18:50:42.791Z,268
2023-05-10T18:52:57.152Z,271
2023-05-10T18:55:11.595Z,264
2023-05-10T18:57:37.034Z,272
2023-05-10T18:59:53.198Z,273
2023-05-10T19:02:10.127Z,274
2023-05-10T19:04:36.356Z,274
2023-05-10T19:06:59.333Z,274
2023-05-10T19:09:12.998Z,259
2023-05-10T19:11:24.742Z,268
2023-05-10T19:13:39.518Z,270
2023-05-10T19:15:55.356Z,270
2023-05-10T19:18:21.214Z,270
2023-05-10T19:20:41.701Z,267
2023-05-10T19:23:18.236Z,270
2023-05-10T19:25:42.116Z,266
2023-05-10T19:28:01.235Z,268
2023-05-10T19:30:15.377Z,270
2023-05-10T19:32:32.843Z,269
2023-05-10T19:34:52.236Z,272
2023-05-10T19:37:08.309Z,269
2023-05-10T19:39:19.064Z,270
2023-05-10T19:41:33.649Z,262
2023-05-10T19:43:47.869Z,264
2023-05-10T19:46:04.110Z,268
2023-05-10T19:48:19.038Z,268
2023-05-10T19:50:43.149Z,267
2023-05-10T19:53:01.098Z,268
2023-05-10T19:55:13.432Z,270
2023-05-10T19:57:26.655Z,270
2023-05-10T19:59:39.659Z,273
2023-05-10T20:01:50.971Z,274
2023-05-10T20:04:03.804Z,274
2023-05-10T20:06:28.688Z,273
2023-05-10T20:08:41.313Z,272
2023-05-10T20:10:55.281Z,274
2023-05-10T20:13:11.680Z,273
2023-05-10T20:15:29.879Z,273
2023-05-10T20:17:49.805Z,273
2023-05-10T20:20:03.006Z,273
2023-05-10T20:22:15.352Z,276
2023-05-10T20:24:26.416Z,276
2023-05-10T20:26:38.316Z,274
2023-05-10T20:28:53.750Z,276
2023-05-10T20:31:06.764Z,274
2023-05-10T20:33:18.171Z,277
2023-05-10T20:35:29.209Z,273
2023-05-10T20:37:41.615Z,274
2023-05-10T20:39:55.812Z,274
2023-05-10T20:42:08.371Z,273
2023-05-10T20:44:20.548Z,273
2023-05-10T20:46:34.055Z,273
2023-05-10T20:48:47.250Z,273
2023-05-10T20:51:00.810Z,272
2023-05-10T20:53:13.474Z,273
2023-05-10T20:55:25.593Z,273
2023-05-10T20:57:37.837Z,273
2023-05-10T20:59:52.828Z,273
2023-05-10T21:02:04.283Z,273
2023-05-10T21:04:15.412Z,273
2023-05-10T21:06:30.495Z,274
2023-05-10T21:08:41.574Z,274
2023-05-10T21:10:52.831Z,276
2023-05-10T21:13:04.078Z,277
2023-05-10T21:15:17.039Z,274
2023-05-10T21:17:29.626Z,273
2023-05-10T21:19:42.243Z,273
2023-05-10T21:21:53.633Z,273
2023-05-10T21:24:05.260Z,273
2023-05-10T21:26:16.093Z,274
2023-05-10T21:28:26.524Z,273
2023-05-10T21:30:39.559Z,273
2023-05-10T21:32:51.052Z,272
2023-05-10T21:35:01.979Z,274
2023-05-10T21:37:19.559Z,280
2023-05-10T21:39:30.204Z,280
2023-05-10T21:41:40.234Z,280
2023-05-10T21:43:50.406Z,279
2023-05-10T21:46:01.864Z,281
2023-05-10T21:48:15.568Z,281
2023-05-10T21:50:27.880Z,281
2023-05-10T21:52:38.882Z,281
2023-05-10T21:54:51.198Z,281
2023-05-10T21:57:02.375Z,280
2023-05-10T21:59:14.612Z,280
2023-05-10T22:01:27.820Z,280
2023-05-10T22:03:39.594Z,280
2023-05-10T22:05:49.854Z,280
2023-05-10T22:08:03.158Z,280
2023-05-10T22:10:22.169Z,280
2023-05-10T22:12:43.612Z,281
2023-05-10T22:15:10.647Z,280
2023-05-10T22:17:23.172Z,281
2023-05-10T22:19:34.779Z,280
2023-05-10T22:21:46.457Z,266
2023-05-10T22:23:57.492Z,280
2023-05-10T22:26:10.101Z,278
2023-05-10T22:28:24.850Z,278
2023-05-10T22:30:40.277Z,278
2023-05-10T22:32:52.259Z,280
2023-05-10T22:35:02.923Z,280
2023-05-10T22:37:13.440Z,280
2023-05-10T22:39:27.833Z,281
2023-05-10T22:41:39.155Z,280
2023-05-10T22:43:51.898Z,280
2023-05-10T22:46:03.685Z,278
2023-05-10T22:48:15.124Z,278
2023-05-10T22:50:27.631Z,279
2023-05-10T22:52:40.602Z,279
2023-05-10T22:54:53.117Z,278
2023-05-10T22:57:09.590Z,278
2023-05-10T22:59:20.787Z,279
2023-05-10T23:01:35.986Z,279
2023-05-10T23:03:48.076Z,279
2023-05-10T23:06:04.397Z,279
2023-05-10T23:08:28.288Z,279
2023-05-10T23:10:41.437Z,276
2023-05-10T23:12:54.142Z,279
2023-05-10T23:15:06.314Z,279
2023-05-10T23:17:17.286Z,276
2023-05-10T23:19:28.512Z,279
2023-05-10T23:21:39.691Z,279
2023-05-10T23:23:51.264Z,279
2023-05-10T23:26:02.517Z,278
2023-05-10T23:28:13.708Z,276
2023-05-10T23:30:29.100Z,274
2023-05-10T23:32:44.924Z,274
2023-05-10T23:34:55.929Z,277
2023-05-10T23:37:11.416Z,277
2023-05-10T23:39:25.609Z,277
2023-05-10T23:41:38.115Z,277
2023-05-10T23:43:48.857Z,277
2023-05-10T23:46:00.640Z,277
2023-05-10T23:48:11.281Z,278
2023-05-10T23:50:24.754Z,278
2023-05-10T23:52:48.057Z,277
2023-05-10T23:54:59.337Z,278
2023-05-10T23:57:09.899Z,279
2023-05-10T23:59:28.758Z,274
